Time;durP1;ratioP1;P1;durP2;ratioP2;P2;SDS_P1;SDS_P2;PMS_P1;PMS_P2;Temp;Humidity;BMP_temperature;BMP_pressure;BME280_temperature;BME280_humidity;BME280_pressure;Samples;Min_cycle;Max_cycle;Signal;HPM_P1;HPM_P2
2022/05/28 00:02:04;;;;;;;0.60;0.60;;;;;;;19.20;39.52;100313.06;18301021;32;20418;-67
2022/05/28 00:12:09;;;;;;;1.00;0.62;;;;;;;19.43;40.42;100335.97;18308690;32;20098;-67
2022/05/28 00:22:13;;;;;;;0.65;0.65;;;;;;;19.23;40.90;100348.22;18309758;32;20129;-67
2022/05/28 00:32:17;;;;;;;1.45;0.50;;;;;;;18.71;41.78;100349.28;18308535;32;20183;-67
2022/05/28 00:42:20;;;;;;;0.68;0.62;;;;;;;18.71;41.73;100333.41;18307992;32;20155;-66
2022/05/28 00:52:26;;;;;;;1.67;0.90;;;;;;;18.23;42.41;100319.28;18307439;32;20089;-67
2022/05/28 01:02:45;;;;;;;0.60;0.60;;;;;;;18.68;41.32;100322.94;18307489;32;20093;-67
2022/05/28 01:12:55;;;;;;;0.60;0.60;;;;;;;18.28;42.29;100334.97;18306663;32;20097;-67
2022/05/28 01:23:13;;;;;;;0.88;0.68;;;;;;;18.74;42.48;100344.78;18306311;32;20140;-67
2022/05/28 01:33:18;;;;;;;0.65;0.65;;;;;;;18.25;43.97;100308.66;18306779;32;20383;-66
2022/05/28 01:43:21;;;;;;;1.80;0.70;;;;;;;18.52;43.54;100279.50;18306165;32;20105;-66
2022/05/28 02:03:51;;;;;;;0.85;0.60;;;;;;;18.32;42.17;100285.50;18305630;32;20390;-67
2022/05/28 02:14:11;;;;;;;2.53;0.90;;;;;;;18.17;42.49;100266.69;18306496;32;20152;-66
2022/05/28 02:24:18;;;;;;;1.67;0.93;;;;;;;17.87;42.53;100288.78;18290999;32;20093;-67
2022/05/28 02:34:23;;;;;;;1.42;0.90;;;;;;;18.07;43.02;100268.75;18304465;32;20104;-66
2022/05/28 02:44:28;;;;;;;1.90;0.80;;;;;;;17.98;43.58;100276.97;18304591;32;20674;-67
2022/05/28 02:54:33;;;;;;;0.82;0.80;;;;;;;17.99;44.63;100313.03;18303649;32;20120;-67
2022/05/28 03:04:36;;;;;;;0.73;0.70;;;;;;;18.68;43.44;100341.44;18303870;32;20120;-67
2022/05/28 03:14:40;;;;;;;1.42;0.75;;;;;;;17.96;45.78;100355.41;18303389;32;20123;-67
2022/05/28 03:24:43;;;;;;;2.37;0.88;;;;;;;17.77;47.08;100358.66;18303954;32;20419;-67
2022/05/28 03:34:48;;;;;;;1.08;0.70;;;;;;;17.82;47.43;100350.59;18302289;32;20093;-67
2022/05/28 03:44:51;;;;;;;3.28;0.98;;;;;;;17.41;49.85;100336.06;18308647;32;20105;-67
2022/05/28 03:54:56;;;;;;;1.25;0.90;;;;;;;17.78;50.38;100341.03;18309576;32;20098;-67
2022/05/28 04:04:59;;;;;;;1.52;0.82;;;;;;;17.32;52.16;100350.38;18308866;32;20098;-67
2022/05/28 04:15:04;;;;;;;2.20;1.08;;;;;;;17.55;50.66;100358.50;18308619;32;20112;-67
2022/05/28 04:25:08;;;;;;;2.20;1.08;;;;;;;18.76;48.72;100340.28;18309586;32;20097;-67
2022/05/28 04:35:13;;;;;;;0.65;0.65;;;;;;;18.97;47.70;100355.37;18307804;32;20374;-67
2022/05/28 04:45:16;;;;;;;0.95;0.80;;;;;;;19.15;48.95;100347.66;18307919;32;20113;-67
2022/05/28 04:55:21;;;;;;;16.83;2.05;;;;;;;18.99;49.42;100355.28;18307433;32;20139;-67
2022/05/28 05:05:24;;;;;;;1.30;0.70;;;;;;;19.98;47.39;100355.84;18302979;32;136960;-67
2022/05/28 05:15:29;;;;;;;0.73;0.73;;;;;;;21.09;42.50;100366.91;18292738;32;20442;-67
2022/05/28 05:25:32;;;;;;;0.93;0.82;;;;;;;19.01;48.84;100377.28;18306610;32;20193;-67
2022/05/28 05:35:37;;;;;;;1.58;0.93;;;;;;;19.87;48.11;100376.59;18306449;32;20105;-67
2022/05/28 05:45:40;;;;;;;1.25;0.80;;;;;;;19.37;49.39;100373.28;18303310;32;20101;-67
2022/05/28 05:55:45;;;;;;;2.08;0.90;;;;;;;20.06;48.03;100376.69;18360451;32;20101;-67
2022/05/28 06:05:48;;;;;;;1.17;0.82;;;;;;;18.97;49.94;100373.88;18356294;32;20086;-66
2022/05/28 06:15:53;;;;;;;2.03;1.05;;;;;;;19.21;46.51;100358.00;18302506;32;20097;-66
2022/05/28 06:25:56;;;;;;;2.58;1.00;;;;;;;19.83;45.34;100354.66;18303799;32;20098;-66
2022/05/28 06:36:03;;;;;;;1.65;0.90;;;;;;;19.46;43.16;100341.16;18327191;32;20121;-66
2022/05/28 06:46:08;;;;;;;3.25;0.98;;;;;;;19.00;39.03;100346.44;18349329;32;20094;-65
2022/05/28 06:56:13;;;;;;;1.70;0.93;;;;;;;19.27;36.03;100341.91;18295341;32;20097;-67
2022/05/28 07:06:17;;;;;;;2.67;1.10;;;;;;;19.24;37.48;100335.87;18297199;32;20204;-66
2022/05/28 07:16:22;;;;;;;2.03;0.90;;;;;;;19.65;36.77;100337.78;18299021;32;20097;-66
2022/05/28 07:26:26;;;;;;;3.35;1.00;;;;;;;20.21;35.85;100344.25;18300402;32;20113;-66
2022/05/28 07:36:31;;;;;;;2.50;0.98;;;;;;;22.87;32.26;100339.41;18298152;32;20097;-66
2022/05/28 07:46:34;;;;;;;1.25;0.80;;;;;;;24.56;27.42;100340.41;18300330;32;20141;-66
2022/05/28 07:56:39;;;;;;;1.10;0.80;;;;;;;22.94;29.42;100349.72;18297364;32;20120;-66
2022/05/28 08:06:43;;;;;;;5.00;0.95;;;;;;;23.13;28.91;100350.41;18297999;32;20487;-67
2022/05/28 08:16:48;;;;;;;2.92;1.10;;;;;;;22.40;31.47;100375.56;18298767;32;20093;-66
2022/05/28 08:26:52;;;;;;;1.87;0.73;;;;;;;21.30;34.19;100384.50;18301637;32;20073;-66
2022/05/28 08:36:56;;;;;;;3.42;0.95;;;;;;;22.37;32.52;100358.91;18289284;32;20206;-65
2022/05/28 08:47:05;;;;;;;1.83;0.88;;;;;;;21.33;33.31;100365.78;18304954;32;20156;-66
2022/05/28 08:57:12;;;;;;;2.72;0.90;;;;;;;21.47;34.80;100373.06;18291326;32;20081;-66
2022/05/28 09:07:17;;;;;;;3.40;0.90;;;;;;;21.64;34.89;100376.72;18304632;32;20092;-66
2022/05/28 09:17:25;;;;;;;0.77;0.77;;;;;;;21.47;32.46;100361.56;18290383;32;20102;-65
2022/05/28 09:27:34;;;;;;;2.70;1.17;;;;;;;21.89;33.47;100357.78;18304680;32;20115;-66
2022/05/28 09:37:43;;;;;;;0.68;0.62;;;;;;;22.21;32.74;100330.47;18300539;32;20081;-65
2022/05/28 09:47:48;;;;;;;2.25;0.95;;;;;;;22.05;33.45;100364.94;18304296;32;20094;-66
2022/05/28 09:57:58;;;;;;;1.67;1.10;;;;;;;22.83;32.14;100343.19;18301791;32;20402;-66
2022/05/28 10:08:09;;;;;;;5.00;1.10;;;;;;;23.67;29.74;100346.53;18300446;32;20875;-66
2022/05/28 10:18:18;;;;;;;0.75;0.73;;;;;;;22.84;30.68;100341.38;18286678;32;20101;-65
2022/05/28 10:28:28;;;;;;;3.50;1.15;;;;;;;23.02;28.31;100330.69;18289960;32;20457;-65
2022/05/28 10:38:32;;;;;;;2.42;0.95;;;;;;;22.50;28.86;100319.25;18300357;32;20094;-65
2022/05/28 10:48:45;;;;;;;3.05;0.85;;;;;;;23.38;28.43;100319.75;18302439;32;20111;-65
2022/05/28 10:58:55;;;;;;;5.93;2.28;;;;;;;24.39;26.61;100321.00;18299745;32;20112;-65
2022/05/28 11:09:05;;;;;;;1.65;0.80;;;;;;;24.23;25.81;100300.59;18301216;32;20120;-65
2022/05/28 11:19:30;;;;;;;2.63;0.70;;;;;;;24.60;26.49;100300.09;18295978;32;20990;-65
2022/05/28 11:29:42;;;;;;;1.15;0.62;;;;;;;23.50;25.31;100288.03;18300250;32;20113;-65
2022/05/28 11:39:50;;;;;;;2.20;0.73;;;;;;;24.43;27.62;100282.50;18300573;32;20449;-67
2022/05/28 12:00:20;;;;;;;1.58;0.70;;;;;;;24.36;24.51;100279.38;18287994;32;20187;-65
2022/05/28 12:10:37;;;;;;;2.35;1.00;;;;;;;23.83;26.12;100269.19;18307469;32;20434;-65
2022/05/28 12:20:52;;;;;;;0.88;0.62;;;;;;;23.64;24.68;100253.44;18294629;32;20147;-65
2022/05/28 12:30:58;;;;;;;3.78;0.62;;;;;;;23.14;24.59;100256.31;18308280;32;20085;-66
2022/05/28 12:41:03;;;;;;;3.58;0.95;;;;;;;23.32;24.89;100255.34;18294857;32;20362;-66
2022/05/28 12:51:24;;;;;;;1.60;0.57;;;;;;;24.66;23.45;100233.00;18307574;32;20101;-65
2022/05/28 13:01:29;;;;;;;2.30;0.50;;;;;;;24.98;21.12;100218.56;18307561;32;20081;-65
2022/05/28 13:11:38;;;;;;;1.37;0.60;;;;;;;25.26;21.99;100219.41;18305981;32;20340;-66
2022/05/28 13:21:59;;;;;;;2.75;0.73;;;;;;;23.77;23.32;100210.94;18305506;32;20366;-67
2022/05/28 13:32:07;;;;;;;3.47;0.80;;;;;;;23.68;23.99;100211.50;18292388;32;20501;-67
2022/05/28 13:42:12;;;;;;;1.95;0.65;;;;;;;24.04;24.42;100207.53;18305770;32;20094;-67
2022/05/28 13:52:18;;;;;;;3.30;0.57;;;;;;;24.90;23.39;100199.53;18305677;32;20105;-67
2022/05/28 14:02:24;;;;;;;1.70;0.50;;;;;;;25.32;21.94;100196.75;18305659;32;20567;-65
2022/05/28 14:12:31;;;;;;;0.40;0.40;;;;;;;25.54;20.75;100179.28;18305685;32;20089;-65
2022/05/28 14:22:37;;;;;;;0.55;0.32;;;;;;;24.85;21.91;100186.47;18284348;32;20112;-65
2022/05/28 14:32:42;;;;;;;0.50;0.30;;;;;;;24.18;20.72;100192.50;18288791;32;20101;-66
2022/05/28 14:42:46;;;;;;;3.05;0.70;;;;;;;24.42;20.89;100195.44;18287722;32;20104;-66
2022/05/28 14:52:50;;;;;;;0.85;0.40;;;;;;;24.43;21.01;100197.13;18297409;32;20097;-66
2022/05/28 15:02:54;;;;;;;0.95;0.40;;;;;;;24.36;21.85;100199.34;18296629;32;20086;-65
2022/05/28 15:13:09;;;;;;;0.28;0.28;;;;;;;24.07;20.58;100198.50;18296729;32;20120;-67
2022/05/28 15:23:14;;;;;;;2.42;0.40;;;;;;;24.10;19.89;100193.00;18299528;32;20104;-65
2022/05/28 15:33:20;;;;;;;0.65;0.50;;;;;;;22.98;20.37;100181.78;18299676;32;20123;-65
2022/05/28 15:43:27;;;;;;;1.90;0.50;;;;;;;22.82;21.40;100184.47;18281681;32;20438;-65
2022/05/28 15:53:30;;;;;;;0.82;0.35;;;;;;;22.94;20.06;100174.91;18301308;32;20089;-66
2022/05/28 16:03:35;;;;;;;0.70;0.52;;;;;;;22.69;20.85;100170.16;18300723;32;20374;-65
2022/05/28 16:13:38;;;;;;;0.32;0.30;;;;;;;22.46;21.59;100172.25;18300497;32;20188;-65
2022/05/28 16:23:43;;;;;;;0.90;0.40;;;;;;;22.64;21.64;100170.41;18299508;32;20411;-65
2022/05/28 16:33:46;;;;;;;0.47;0.37;;;;;;;22.13;22.26;100175.84;18300269;32;20105;-65
2022/05/28 16:43:51;;;;;;;0.30;0.30;;;;;;;22.01;22.43;100191.53;18284642;32;20124;-65
2022/05/28 16:53:54;;;;;;;0.73;0.30;;;;;;;22.07;22.35;100205.41;18307637;32;20405;-65
2022/05/28 17:03:59;;;;;;;0.32;0.32;;;;;;;21.73;23.33;100211.59;18293033;32;20434;-65
2022/05/28 17:14:02;;;;;;;1.45;0.60;;;;;;;21.92;22.20;100218.59;18292986;32;20086;-65
2022/05/28 17:24:08;;;;;;;12.32;3.85;;;;;;;21.48;23.36;100219.91;18306693;32;20113;-65
2022/05/28 17:34:12;;;;;;;3.67;0.90;;;;;;;21.65;23.94;100227.03;18307432;32;20406;-65
2022/05/28 17:44:16;;;;;;;2.40;1.02;;;;;;;21.45;24.43;100241.31;18306332;32;20151;-65
2022/05/28 17:54:20;;;;;;;0.30;0.30;;;;;;;21.41;25.12;100245.91;18305933;32;20125;-65
2022/05/28 18:04:28;;;;;;;1.00;0.62;;;;;;;20.94;25.27;100252.62;18304559;32;20386;-65
2022/05/28 18:14:31;;;;;;;0.70;0.50;;;;;;;20.56;26.88;100253.47;18291522;32;20097;-65
2022/05/28 18:24:37;;;;;;;1.17;0.60;;;;;;;20.09;27.90;100260.84;18303255;32;20112;-65
2022/05/28 18:34:41;;;;;;;2.78;1.05;;;;;;;19.83;28.34;100264.63;18302054;32;20089;-65
2022/05/28 18:44:48;;;;;;;2.12;0.90;;;;;;;19.71;29.42;100287.19;18287379;32;20112;-65
2022/05/28 18:54:51;;;;;;;1.00;0.73;;;;;;;19.35;30.71;100301.00;18301812;32;20145;-65
2022/05/28 19:04:56;;;;;;;0.95;0.70;;;;;;;18.93;31.72;100326.44;18301250;32;20112;-65
2022/05/28 19:14:59;;;;;;;0.95;0.77;;;;;;;18.84;31.87;100330.28;18314787;32;20196;-65
2022/05/28 19:35:25;;;;;;;1.95;0.90;;;;;;;17.57;36.44;100346.97;18297877;32;20089;-65
2022/05/28 19:45:36;;;;;;;2.80;1.20;;;;;;;16.94;38.29;100344.47;18296721;32;20128;-65
2022/05/28 19:55:40;;;;;;;1.70;0.80;;;;;;;16.82;40.06;100345.69;18290997;32;20089;-64
2022/05/28 20:05:45;;;;;;;3.40;1.33;;;;;;;16.34;42.43;100345.25;18289391;32;20199;-64
2022/05/28 20:15:48;;;;;;;2.22;0.90;;;;;;;16.13;42.64;100332.66;18297759;32;20085;-64
2022/05/28 20:25:53;;;;;;;1.70;0.90;;;;;;;14.75;45.93;100347.22;18302372;32;20131;-64
2022/05/28 20:35:57;;;;;;;1.52;0.95;;;;;;;14.38;46.31;100344.41;18298108;32;20105;-64
2022/05/28 20:46:05;;;;;;;2.70;0.95;;;;;;;14.04;48.01;100360.75;18303491;32;20096;-64
2022/05/28 20:56:11;;;;;;;3.15;1.10;;;;;;;13.59;49.73;100374.59;18304021;32;20112;-64
2022/05/28 21:06:18;;;;;;;2.95;0.90;;;;;;;14.24;48.90;100367.41;18306709;32;20161;-64
2022/05/28 21:16:24;;;;;;;1.37;1.10;;;;;;;13.90;50.31;100374.09;18306493;32;20105;-64
2022/05/28 21:36:50;;;;;;;2.12;0.95;;;;;;;13.35;52.47;100400.25;18306336;32;20109;-64
2022/05/28 21:46:55;;;;;;;2.33;0.90;;;;;;;13.33;52.93;100404.66;18305907;32;20093;-64
2022/05/28 21:56:58;;;;;;;1.80;1.00;;;;;;;13.01;53.05;100411.19;18291680;32;20116;-64
2022/05/28 22:07:03;;;;;;;2.00;1.08;;;;;;;13.21;53.19;100415.31;18305633;32;20093;-65
2022/05/28 22:17:07;;;;;;;1.80;0.98;;;;;;;12.87;54.59;100422.66;18302763;32;20137;-65
2022/05/28 22:27:11;;;;;;;3.53;1.23;;;;;;;12.63;56.06;100419.44;18305037;32;20089;-64
2022/05/28 22:37:14;;;;;;;1.90;1.00;;;;;;;12.34;58.16;100418.00;18304477;32;20115;-64
2022/05/28 22:47:19;;;;;;;2.65;1.37;;;;;;;12.56;57.79;100409.91;18303951;32;20116;-64
2022/05/28 22:57:22;;;;;;;1.95;1.10;;;;;;;12.18;58.25;100414.62;18290283;32;20116;-64
2022/05/28 23:07:27;;;;;;;1.62;1.12;;;;;;;12.33;59.11;100397.06;18303127;32;20367;-64
2022/05/28 23:17:31;;;;;;;1.17;0.90;;;;;;;12.54;58.35;100392.47;18303668;32;20093;-64
2022/05/28 23:27:37;;;;;;;2.62;1.10;;;;;;;12.54;57.92;100385.50;18289050;32;20101;-64
2022/05/28 23:37:40;;;;;;;1.05;0.82;;;;;;;12.02;59.19;100377.25;18302316;32;20098;-64
2022/05/28 23:47:44;;;;;;;2.20;1.10;;;;;;;12.19;59.66;100378.84;18302151;32;20112;-64
2022/05/28 23:57:48;;;;;;;1.48;1.00;;;;;;;11.86;59.10;100373.88;18304771;32;20155;-64
